createdAt,value
2023-04-15T00:00:33.909Z,4.28
2023-04-15T00:03:02.326Z,3.83
2023-04-15T00:05:33.261Z,4.05
2023-04-15T00:08:01.344Z,4.07
2023-04-15T00:10:28.886Z,4.20
2023-04-15T00:12:55.988Z,4.47
2023-04-15T00:15:23.305Z,4.23
2023-04-15T00:17:52.139Z,4.20
2023-04-15T00:20:19.314Z,4.15
2023-04-15T00:22:46.436Z,4.30
2023-04-15T00:25:13.683Z,4.45
2023-04-15T00:27:41.033Z,4.60
2023-04-15T00:30:08.431Z,4.00
2023-04-15T00:32:35.717Z,3.92
2023-04-15T00:35:04.169Z,4.53
2023-04-15T00:37:31.961Z,5.10
2023-04-15T00:39:59.089Z,4.30
2023-04-15T00:42:26.345Z,4.53
2023-04-15T00:44:53.611Z,4.38
2023-04-15T00:47:21.609Z,4.47
2023-04-15T00:49:48.759Z,4.80
2023-04-15T00:52:15.897Z,4.83
2023-04-15T00:54:43.100Z,4.82
2023-04-15T00:57:10.313Z,4.78
2023-04-15T00:59:37.621Z,4.90
2023-04-15T01:02:04.905Z,6.00
2023-04-15T01:04:32.608Z,5.73
2023-04-15T01:06:59.866Z,5.70
2023-04-15T01:09:27.189Z,5.80
2023-04-15T01:11:54.305Z,5.68
2023-04-15T01:14:22.008Z,5.18
2023-04-15T01:16:49.295Z,5.22
2023-04-15T01:19:18.086Z,5.10
2023-04-15T01:21:45.953Z,5.13
2023-04-15T01:24:14.696Z,5.05
2023-04-15T01:26:44.478Z,4.93
2023-04-15T01:29:11.783Z,4.88
2023-04-15T01:31:39.070Z,4.38
2023-04-15T01:34:06.213Z,4.45
2023-04-15T01:36:33.322Z,4.35
2023-04-15T01:39:00.658Z,4.95
2023-04-15T01:41:28.336Z,4.25
2023-04-15T01:43:55.965Z,4.65
2023-04-15T01:46:23.506Z,4.35
2023-04-15T01:48:50.840Z,4.43
2023-04-15T01:51:18.027Z,4.97
2023-04-15T01:53:45.441Z,4.03
2023-04-15T01:56:12.663Z,4.18
2023-04-15T01:58:40.632Z,4.20
2023-04-15T02:01:07.910Z,4.13
2023-04-15T02:03:35.151Z,4.50
2023-04-15T02:06:02.478Z,4.60
2023-04-15T02:08:29.711Z,4.28
2023-04-15T02:10:57.135Z,4.22
2023-04-15T02:13:24.281Z,4.70
2023-04-15T02:15:52.717Z,4.43
2023-04-15T02:18:19.907Z,4.55
2023-04-15T02:20:47.201Z,4.13
2023-04-15T02:23:14.466Z,4.70
2023-04-15T02:25:41.629Z,4.78
2023-04-15T02:28:08.772Z,3.80
2023-04-15T02:30:35.959Z,4.43
2023-04-15T02:33:03.292Z,4.45
2023-04-15T02:35:30.539Z,4.70
2023-04-15T02:37:57.695Z,4.53
2023-04-15T02:40:24.881Z,4.25
2023-04-15T02:42:52.033Z,5.13
2023-04-15T02:45:23.649Z,4.32
2023-04-15T02:47:51.068Z,4.70
2023-04-15T02:50:18.242Z,4.18
2023-04-15T02:52:45.847Z,4.90
2023-04-15T02:55:13.346Z,4.80
2023-04-15T02:57:41.212Z,4.03
2023-04-15T03:00:10.143Z,4.88
2023-04-15T03:02:38.115Z,4.63
2023-04-15T03:05:09.104Z,4.53
2023-04-15T03:07:36.235Z,4.80
2023-04-15T03:10:03.504Z,4.60
2023-04-15T03:12:30.649Z,4.78
2023-04-15T03:14:58.214Z,4.63
2023-04-15T03:17:25.458Z,4.40
2023-04-15T03:19:52.633Z,4.90
2023-04-15T03:22:19.717Z,4.50
2023-04-15T03:24:46.907Z,4.90
2023-04-15T03:27:14.077Z,4.65
2023-04-15T03:29:41.349Z,4.68
2023-04-15T03:32:08.538Z,4.60
2023-04-15T03:34:36.036Z,4.93
2023-04-15T03:37:03.222Z,4.55
2023-04-15T03:39:30.451Z,4.50
2023-04-15T03:41:57.844Z,4.28
2023-04-15T03:44:24.914Z,4.30
2023-04-15T03:46:52.199Z,4.90
2023-04-15T03:49:19.921Z,4.90
2023-04-15T03:51:47.076Z,4.80
2023-04-15T03:54:15.347Z,4.70
2023-04-15T03:56:42.527Z,4.53
2023-04-15T03:59:09.984Z,4.70
2023-04-15T04:01:37.152Z,4.60
2023-04-15T04:04:04.561Z,4.65
2023-04-15T04:06:32.126Z,5.13
2023-04-15T04:08:59.507Z,4.75
2023-04-15T04:11:28.127Z,4.60
2023-04-15T04:13:55.348Z,4.13
2023-04-15T04:16:22.637Z,4.45
2023-04-15T04:18:49.855Z,4.95
2023-04-15T04:21:17.310Z,5.07
2023-04-15T04:23:44.429Z,4.72
2023-04-15T04:26:11.519Z,4.88
2023-04-15T04:28:40.531Z,5.00
2023-04-15T04:31:07.954Z,4.80
2023-04-15T04:33:35.401Z,4.88
2023-04-15T04:36:02.561Z,5.18
2023-04-15T04:38:29.752Z,5.20
2023-04-15T04:40:56.899Z,4.60
2023-04-15T04:43:24.100Z,4.78
2023-04-15T04:45:51.240Z,4.53
2023-04-15T04:48:18.660Z,5.40
2023-04-15T04:50:47.048Z,5.13
2023-04-15T04:53:14.214Z,4.65
2023-04-15T04:55:41.305Z,5.55
2023-04-15T04:58:08.401Z,5.63
2023-04-15T05:00:35.703Z,4.97
2023-04-15T05:03:02.941Z,5.28
2023-04-15T05:05:30.238Z,4.97
2023-04-15T05:07:57.366Z,5.20
2023-04-15T05:10:24.488Z,5.20
2023-04-15T05:12:52.638Z,5.30
2023-04-15T05:15:20.425Z,5.30
2023-04-15T05:17:47.729Z,5.32
2023-04-15T05:20:15.626Z,4.93
2023-04-15T05:22:42.746Z,4.97
2023-04-15T05:25:10.242Z,5.05
2023-04-15T05:27:37.387Z,5.38
2023-04-15T05:30:04.801Z,5.13
2023-04-15T05:32:31.932Z,5.55
2023-04-15T05:34:59.186Z,5.10
2023-04-15T05:37:26.619Z,5.45
2023-04-15T05:39:53.746Z,5.22
2023-04-15T05:42:20.872Z,5.20
2023-04-15T05:44:48.035Z,5.40
2023-04-15T05:47:15.872Z,5.85
2023-04-15T05:49:43.025Z,4.95
2023-04-15T05:52:10.280Z,5.30
2023-04-15T05:54:37.382Z,4.85
2023-04-15T05:57:04.522Z,4.85
2023-04-15T05:59:31.727Z,5.15
2023-04-15T06:01:58.975Z,5.22
2023-04-15T06:04:26.290Z,5.50
2023-04-15T06:06:53.608Z,4.90
2023-04-15T06:09:20.954Z,5.38
2023-04-15T06:11:48.176Z,5.13
2023-04-15T06:14:15.918Z,5.65
2023-04-15T06:16:43.339Z,5.00
2023-04-15T06:19:10.898Z,4.93
2023-04-15T06:21:38.120Z,5.50
2023-04-15T06:24:05.442Z,5.45
2023-04-15T06:26:32.677Z,5.35
2023-04-15T06:28:59.992Z,5.60
2023-04-15T06:31:27.426Z,5.28
2023-04-15T06:33:54.672Z,4.82
2023-04-15T06:36:21.990Z,5.32
2023-04-15T06:38:49.230Z,4.90
2023-04-15T06:41:16.408Z,5.30
2023-04-15T06:43:43.558Z,5.13
2023-04-15T06:46:11.041Z,5.05
2023-04-15T06:48:38.404Z,5.10
2023-04-15T06:51:05.617Z,5.78
2023-04-15T06:53:32.874Z,5.32
2023-04-15T06:56:00.119Z,5.60
2023-04-15T06:58:27.313Z,5.38
2023-04-15T07:00:54.705Z,5.43
2023-04-15T07:03:22.521Z,5.50
2023-04-15T07:05:49.748Z,5.28
2023-04-15T07:08:16.944Z,5.43
2023-04-15T07:10:44.213Z,5.03
2023-04-15T07:13:11.409Z,5.17
2023-04-15T07:15:38.629Z,5.20
2023-04-15T07:18:05.829Z,5.75
2023-04-15T07:20:33.064Z,5.47
2023-04-15T07:23:00.380Z,5.10
2023-04-15T07:25:27.530Z,4.97
2023-04-15T07:27:55.136Z,5.13
2023-04-15T07:30:22.492Z,5.35
2023-04-15T07:32:49.727Z,5.18
2023-04-15T07:35:17.030Z,4.88
2023-04-15T07:37:44.221Z,5.00
2023-04-15T07:40:12.168Z,4.47
2023-04-15T07:42:41.357Z,4.20
2023-04-15T07:45:09.578Z,3.88
2023-04-15T07:47:37.169Z,4.30
2023-04-15T07:50:04.533Z,3.87
2023-04-15T07:52:32.559Z,3.80
2023-04-15T07:54:59.710Z,3.35
2023-04-15T07:57:27.051Z,3.88
2023-04-15T07:59:54.326Z,3.50
2023-04-15T08:02:22.351Z,3.37
2023-04-15T08:04:49.711Z,3.65
2023-04-15T08:07:17.010Z,3.92
2023-04-15T08:09:44.232Z,3.72
2023-04-15T08:12:13.418Z,3.47
2023-04-15T08:14:40.683Z,3.70
2023-04-15T08:17:07.863Z,3.88
2023-04-15T08:19:35.567Z,3.88
2023-04-15T08:22:03.102Z,3.05
2023-04-15T08:24:31.714Z,3.47
2023-04-15T08:26:59.965Z,3.50
2023-04-15T08:29:27.607Z,3.38
2023-04-15T08:31:55.191Z,3.75
2023-04-15T08:34:22.474Z,2.97
2023-04-15T08:36:49.769Z,3.50
2023-04-15T08:39:17.141Z,3.47
2023-04-15T08:41:49.941Z,3.47
2023-04-15T08:44:17.562Z,3.80
2023-04-15T08:46:44.932Z,3.30
2023-04-15T08:49:13.398Z,3.35
2023-04-15T08:51:43.625Z,3.10
2023-04-15T08:54:11.103Z,2.92
2023-04-15T08:56:40.840Z,2.50
2023-04-15T08:59:08.287Z,2.10
2023-04-15T09:01:36.596Z,2.42
2023-04-15T09:04:06.658Z,2.13
2023-04-15T09:06:33.980Z,2.80
2023-04-15T09:09:01.532Z,2.70
2023-04-15T09:11:31.510Z,2.90
2023-04-15T09:13:58.749Z,3.10
2023-04-15T09:16:26.224Z,3.00
2023-04-15T09:18:53.574Z,2.80
2023-04-15T09:21:21.034Z,2.85
2023-04-15T09:23:58.208Z,2.80
2023-04-15T09:26:35.731Z,2.85
2023-04-15T09:29:09.903Z,2.70
2023-04-15T09:31:37.856Z,2.42
2023-04-15T09:34:05.692Z,2.67
2023-04-15T09:36:50.860Z,2.10
2023-04-15T09:39:18.447Z,2.60
2023-04-15T09:41:45.678Z,2.17
2023-04-15T09:44:25.831Z,1.92
2023-04-15T09:46:53.017Z,2.00
2023-04-15T09:49:21.162Z,1.90
2023-04-15T09:52:03.979Z,2.10
2023-04-15T09:54:36.610Z,2.20
2023-04-15T09:57:07.461Z,2.22
2023-04-15T09:59:34.833Z,2.20
2023-04-15T10:02:03.006Z,2.10
2023-04-15T10:04:31.074Z,2.33
2023-04-15T10:06:58.471Z,2.70
2023-04-15T10:09:25.782Z,2.80
2023-04-15T10:11:53.106Z,2.67
2023-04-15T10:14:20.790Z,3.00
2023-04-15T10:16:49.077Z,2.72
2023-04-15T10:19:19.972Z,2.97
2023-04-15T10:21:47.292Z,2.67
2023-04-15T10:24:14.594Z,2.47
2023-04-15T10:26:42.138Z,2.33
2023-04-15T10:29:10.421Z,2.63
2023-04-15T10:31:38.422Z,2.57
2023-04-15T10:34:06.741Z,2.20
2023-04-15T10:36:34.364Z,2.63
2023-04-15T10:39:01.953Z,2.38
2023-04-15T10:41:34.606Z,2.40
2023-04-15T10:44:03.052Z,2.37
2023-04-15T10:46:41.123Z,2.08
2023-04-15T10:49:11.062Z,2.33
2023-04-15T10:51:41.633Z,2.90
2023-04-15T10:54:31.378Z,2.60
2023-04-15T10:57:02.011Z,2.80
2023-04-15T10:59:32.732Z,2.42
2023-04-15T11:02:03.208Z,2.40
2023-04-15T11:04:49.404Z,2.53
2023-04-15T11:07:16.559Z,2.90
2023-04-15T11:09:43.756Z,2.60
2023-04-15T11:12:11.933Z,2.90
2023-04-15T11:14:43.559Z,2.33
2023-04-15T11:17:10.885Z,2.80
2023-04-15T11:19:38.969Z,3.05
2023-04-15T11:22:12.662Z,2.70
2023-04-15T11:24:50.525Z,2.78
2023-04-15T11:27:24.559Z,2.38
2023-04-15T11:29:52.513Z,2.35
2023-04-15T11:32:19.902Z,2.00
2023-04-15T11:34:48.859Z,1.83
2023-04-15T11:37:16.007Z,1.50
2023-04-15T11:39:43.197Z,1.70
2023-04-15T11:42:19.731Z,1.50
2023-04-15T11:44:47.051Z,1.50
2023-04-15T11:47:24.196Z,1.20
2023-04-15T11:49:54.609Z,1.48
2023-04-15T11:52:21.747Z,1.98
2023-04-15T11:54:49.066Z,1.50
2023-04-15T11:57:16.264Z,1.35
2023-04-15T11:59:46.073Z,1.40
2023-04-15T12:02:14.460Z,1.45
2023-04-15T12:04:42.378Z,1.50
2023-04-15T12:07:09.950Z,1.48
2023-04-15T12:09:41.093Z,1.30
2023-04-15T12:12:08.430Z,1.40
2023-04-15T12:14:36.578Z,1.90
2023-04-15T12:17:05.511Z,2.10
2023-04-15T12:19:32.753Z,1.50
2023-04-15T12:22:01.162Z,1.48
2023-04-15T12:24:28.778Z,1.40
2023-04-15T12:26:59.652Z,1.50
2023-04-15T12:29:28.465Z,1.50
2023-04-15T12:31:56.887Z,1.50
2023-04-15T12:34:28.543Z,1.52
2023-04-15T12:36:55.810Z,1.57
2023-04-15T12:39:24.404Z,1.40
2023-04-15T12:41:51.775Z,1.33
2023-04-15T12:44:19.085Z,1.25
2023-04-15T12:46:47.070Z,1.80
2023-04-15T12:49:16.146Z,1.40
2023-04-15T12:51:43.513Z,1.50
2023-04-15T12:54:10.667Z,1.30
2023-04-15T12:56:37.779Z,1.60
2023-04-15T12:59:04.940Z,1.67
2023-04-15T13:01:32.122Z,1.70
2023-04-15T13:03:59.486Z,1.80
2023-04-15T13:06:26.905Z,1.55
2023-04-15T13:08:58.346Z,1.58
2023-04-15T13:11:26.367Z,1.30
2023-04-15T13:13:53.538Z,1.47
2023-04-15T13:16:21.803Z,1.50
2023-04-15T13:18:49.568Z,1.50
2023-04-15T13:21:16.992Z,1.45
2023-04-15T13:23:44.177Z,1.30
2023-04-15T13:26:11.545Z,1.70
2023-04-15T13:28:39.185Z,1.52
2023-04-15T13:31:06.655Z,1.50
2023-04-15T13:33:33.990Z,1.40
2023-04-15T13:36:01.434Z,1.30
2023-04-15T13:38:28.728Z,1.23
2023-04-15T13:40:56.250Z,1.20
2023-04-15T13:43:23.505Z,1.35
2023-04-15T13:45:50.677Z,1.30
2023-04-15T13:48:17.995Z,1.40
2023-04-15T13:50:45.818Z,1.20
2023-04-15T13:53:13.465Z,1.30
2023-04-15T13:55:42.773Z,1.58
2023-04-15T13:58:10.451Z,1.60
2023-04-15T14:00:37.742Z,1.38
2023-04-15T14:03:05.441Z,1.50
2023-04-15T14:05:33.150Z,0.98
2023-04-15T14:08:00.965Z,1.40
2023-04-15T14:10:28.141Z,1.35
2023-04-15T14:12:55.445Z,1.00
2023-04-15T14:15:22.706Z,1.20
2023-04-15T14:17:49.921Z,1.17
2023-04-15T14:20:17.484Z,1.10
2023-04-15T14:22:44.872Z,0.90
2023-04-15T14:25:17.493Z,1.00
2023-04-15T14:27:50.534Z,1.07
2023-04-15T14:30:18.233Z,0.80
2023-04-15T14:32:45.480Z,0.77
2023-04-15T14:35:12.631Z,0.95
2023-04-15T14:37:39.798Z,1.00
2023-04-15T14:40:07.562Z,0.90
2023-04-15T14:42:34.667Z,1.00
2023-04-15T14:45:01.990Z,1.15
2023-04-15T14:47:29.304Z,1.10
2023-04-15T14:49:57.280Z,1.17
2023-04-15T14:52:24.454Z,0.90
2023-04-15T14:54:51.724Z,0.88
2023-04-15T14:57:18.968Z,1.20
2023-04-15T14:59:46.476Z,1.27
2023-04-15T15:02:17.366Z,1.05
2023-04-15T15:04:53.610Z,0.90
2023-04-15T15:07:20.795Z,1.20
2023-04-15T15:09:48.000Z,1.10
2023-04-15T15:12:15.349Z,1.40
2023-04-15T15:14:42.539Z,1.10
2023-04-15T15:17:10.489Z,1.20
2023-04-15T15:19:38.013Z,0.95
2023-04-15T15:22:05.817Z,0.90
2023-04-15T15:24:33.210Z,0.82
2023-04-15T15:27:01.395Z,0.90
2023-04-15T15:29:28.687Z,0.70
2023-04-15T15:31:55.990Z,0.80
2023-04-15T15:34:23.266Z,1.33
2023-04-15T15:36:50.454Z,1.50
2023-04-15T15:39:17.693Z,1.02
2023-04-15T15:41:44.902Z,1.13
2023-04-15T15:44:12.075Z,0.73
2023-04-15T15:46:39.324Z,0.82
2023-04-15T15:49:06.780Z,0.80
2023-04-15T15:51:34.110Z,4.28
2023-04-15T15:54:01.274Z,4.60
2023-04-15T15:56:28.485Z,4.95
2023-04-15T15:58:55.810Z,3.45
2023-04-15T16:01:23.340Z,1.50
2023-04-15T16:03:50.709Z,1.30
2023-04-15T16:06:17.973Z,2.00
2023-04-15T16:08:45.198Z,1.25
2023-04-15T16:11:12.391Z,1.80
2023-04-15T16:13:39.636Z,1.30
2023-04-15T16:16:06.943Z,3.65
2023-04-15T16:18:35.281Z,1.80
2023-04-15T16:21:02.606Z,2.95
2023-04-15T16:23:29.853Z,3.33
2023-04-15T16:25:57.718Z,3.00
2023-04-15T16:28:27.229Z,5.07
2023-04-15T16:30:54.719Z,2.80
2023-04-15T16:33:21.955Z,5.43
2023-04-15T16:35:49.100Z,2.92
2023-04-15T16:38:16.314Z,1.35
2023-04-15T16:40:43.455Z,1.48
2023-04-15T16:43:11.482Z,1.63
2023-04-15T16:45:38.916Z,3.13
2023-04-15T16:48:06.378Z,1.98
2023-04-15T16:50:33.669Z,2.63
2023-04-15T16:53:01.574Z,1.88
2023-04-15T16:55:28.749Z,1.73
2023-04-15T16:58:01.883Z,5.22
2023-04-15T17:00:30.404Z,2.08
2023-04-15T17:02:57.972Z,1.52
2023-04-15T17:05:27.226Z,2.00
2023-04-15T17:07:54.665Z,1.80
2023-04-15T17:10:21.909Z,2.83
2023-04-15T17:12:51.900Z,1.10
2023-04-15T17:15:19.571Z,1.33
2023-04-15T17:17:46.751Z,1.42
2023-04-15T17:20:14.046Z,2.50
2023-04-15T17:22:41.543Z,1.55
2023-04-15T17:25:09.003Z,3.55
2023-04-15T17:27:36.491Z,1.30
2023-04-15T17:30:03.719Z,1.42
2023-04-15T17:32:34.476Z,0.90
2023-04-15T17:35:02.973Z,1.13
2023-04-15T17:37:30.223Z,1.05
2023-04-15T17:39:57.411Z,2.00
2023-04-15T17:42:24.650Z,1.20
2023-04-15T17:44:51.889Z,1.10
2023-04-15T17:47:19.109Z,1.60
2023-04-15T17:49:47.298Z,8.55
2023-04-15T17:52:14.842Z,2.15
2023-04-15T17:54:42.135Z,2.67
2023-04-15T17:57:09.837Z,1.40
2023-04-15T17:59:37.108Z,2.17
2023-04-15T18:02:05.951Z,1.98
2023-04-15T18:04:33.568Z,1.67
2023-04-15T18:07:00.882Z,2.20
2023-04-15T18:09:28.275Z,1.60
2023-04-15T18:11:57.177Z,1.30
2023-04-15T18:14:33.609Z,1.90
2023-04-15T18:17:01.942Z,1.13
2023-04-15T18:19:29.191Z,1.65
2023-04-15T18:21:56.362Z,1.20
2023-04-15T18:24:23.720Z,1.27
2023-04-15T18:26:50.980Z,1.00
2023-04-15T18:29:18.639Z,1.38
2023-04-15T18:31:45.875Z,1.42
2023-04-15T18:34:13.460Z,1.40
2023-04-15T18:36:40.775Z,1.42
2023-04-15T18:39:08.361Z,2.50
2023-04-15T18:41:35.769Z,1.95
2023-04-15T18:44:02.960Z,2.88
2023-04-15T18:46:30.228Z,6.30
2023-04-15T18:48:57.464Z,3.00
2023-04-15T18:51:24.598Z,1.40
2023-04-15T18:53:51.920Z,3.20
2023-04-15T18:56:19.128Z,1.85
2023-04-15T18:59:08.883Z,1.70
2023-04-15T19:01:33.639Z,24.95
2023-04-15T19:04:01.694Z,4.15
2023-04-15T19:06:29.402Z,2.00
2023-04-15T19:08:58.537Z,4.38
2023-04-15T19:11:26.328Z,3.50
2023-04-15T19:13:53.679Z,2.28
2023-04-15T19:16:21.103Z,1.70
2023-04-15T19:18:48.296Z,1.33
2023-04-15T19:21:15.749Z,2.58
2023-04-15T19:23:43.232Z,1.60
2023-04-15T19:26:12.679Z,1.23
2023-04-15T19:28:39.816Z,1.35
2023-04-15T19:31:07.404Z,1.95
2023-04-15T19:33:34.829Z,1.05
2023-04-15T19:36:02.865Z,1.10
2023-04-15T19:38:30.848Z,1.27
2023-04-15T19:40:58.557Z,1.00
2023-04-15T19:43:26.021Z,1.00
2023-04-15T19:45:54.641Z,1.60
2023-04-15T19:48:22.169Z,0.90
2023-04-15T19:50:49.512Z,0.93
2023-04-15T19:53:16.731Z,1.10
2023-04-15T19:55:44.014Z,1.30
2023-04-15T19:58:11.251Z,1.23
2023-04-15T20:00:39.046Z,2.50
2023-04-15T20:03:06.515Z,3.63
2023-04-15T20:05:34.025Z,1.80
2023-04-15T20:08:01.770Z,1.65
2023-04-15T20:10:29.776Z,1.25
2023-04-15T20:12:57.023Z,1.25
2023-04-15T20:15:24.414Z,1.55
2023-04-15T20:17:51.726Z,1.27
2023-04-15T20:20:19.050Z,1.40
2023-04-15T20:22:46.411Z,1.10
2023-04-15T20:25:13.640Z,1.20
2023-04-15T20:27:40.836Z,2.40
2023-04-15T20:30:08.348Z,10.15
2023-04-15T20:32:36.267Z,6.60
2023-04-15T20:35:04.468Z,3.40
2023-04-15T20:37:33.424Z,3.77
2023-04-15T20:40:01.360Z,3.42
2023-04-15T20:42:28.715Z,1.92
2023-04-15T20:44:55.965Z,2.70
2023-04-15T20:47:23.130Z,1.75
2023-04-15T20:49:50.622Z,1.98
2023-04-15T20:52:17.736Z,1.70
2023-04-15T20:54:44.930Z,2.35
2023-04-15T20:57:12.059Z,1.60
2023-04-15T20:59:39.209Z,2.75
2023-04-15T21:02:06.582Z,2.85
2023-04-15T21:04:33.819Z,2.63
2023-04-15T21:07:00.963Z,1.95
2023-04-15T21:09:28.332Z,1.35
2023-04-15T21:14:26.073Z,1.30
2023-04-15T21:16:53.300Z,1.42
2023-04-15T21:19:20.558Z,1.45
2023-04-15T21:21:47.754Z,1.95
2023-04-15T21:24:14.959Z,1.75
2023-04-15T21:26:42.283Z,1.97
2023-04-15T21:29:11.434Z,1.50
2023-04-15T21:31:39.141Z,1.50
2023-04-15T21:34:06.474Z,3.03
2023-04-15T21:36:33.980Z,1.98
2023-04-15T21:39:01.416Z,2.00
2023-04-15T21:41:28.750Z,2.10
2023-04-15T21:43:56.051Z,2.40
2023-04-15T21:46:25.744Z,2.00
2023-04-15T21:49:00.311Z,3.80
2023-04-15T21:51:27.774Z,4.75
2023-04-15T21:53:55.049Z,1.60
2023-04-15T21:56:24.193Z,1.55
2023-04-15T21:58:51.662Z,1.40
2023-04-15T22:01:18.888Z,1.73
2023-04-15T22:03:46.303Z,1.70
2023-04-15T22:06:13.847Z,1.48
2023-04-15T22:08:52.455Z,1.60
2023-04-15T22:11:27.452Z,1.60
2023-04-15T22:13:55.190Z,1.50
2023-04-15T22:16:22.357Z,1.40
2023-04-15T22:18:49.733Z,1.42
2023-04-15T22:21:16.982Z,1.63
2023-04-15T22:23:47.748Z,1.27
2023-04-15T22:26:15.131Z,1.77
2023-04-15T22:28:42.476Z,1.40
2023-04-15T22:31:09.908Z,1.15
2023-04-15T22:33:37.146Z,1.75
2023-04-15T22:36:05.882Z,1.25
2023-04-15T22:38:33.145Z,1.42
2023-04-15T22:41:00.437Z,1.25
2023-04-15T22:43:27.920Z,1.80
2023-04-15T22:45:55.416Z,1.60
2023-04-15T22:48:23.072Z,1.30
2023-04-15T22:50:50.554Z,1.48
2023-04-15T22:53:17.937Z,1.90
2023-04-15T22:55:46.167Z,1.80
2023-04-15T22:58:13.470Z,1.50
2023-04-15T23:00:40.694Z,1.50
2023-04-15T23:03:08.142Z,1.48
2023-04-15T23:05:35.616Z,1.60
2023-04-15T23:08:02.864Z,1.60
2023-04-15T23:10:30.325Z,1.60
2023-04-15T23:12:57.477Z,2.30
2023-04-15T23:15:24.847Z,1.80
2023-04-15T23:17:52.128Z,2.00
2023-04-15T23:20:19.338Z,2.30
2023-04-15T23:22:46.578Z,2.45
2023-04-15T23:25:13.777Z,2.60
2023-04-15T23:27:40.900Z,2.20
2023-04-15T23:30:08.388Z,2.60
2023-04-15T23:32:35.855Z,2.90
2023-04-15T23:35:03.330Z,2.40
2023-04-15T23:37:31.518Z,2.50
2023-04-15T23:39:58.729Z,2.67
2023-04-15T23:42:26.060Z,2.10
2023-04-15T23:44:53.258Z,2.33
2023-04-15T23:47:20.626Z,2.40
2023-04-15T23:49:47.852Z,2.63
2023-04-15T23:52:15.217Z,2.40
2023-04-15T23:54:42.406Z,2.40
2023-04-15T23:57:09.649Z,2.30
2023-04-15T23:59:36.817Z,2.72
